Terminal Aerodrome Forecast
Issued by NWS Burlington, VT

Current Version | Previous Version | Text Only | Print | Product List | Glossary On
Versions: 1 2 3 4 5 6 7 8 9 10 11 12
000 FTUS41 KBTV 302331 TAFBTV TAF KBTV 302331Z 0100/0124 12004KT P6SM OVC120 FM011200 VRB03KT P6SM VCSH OVC080 FM011700 13007KT P6SM OVC080=

USA.gov is the U.S. government's official web portal to all federal, state and local government web resources and services.